Detall de PIREP

Printer-friendly versionPDF version

[2012/05/01 09:08:00]
Flight IATA:CT0001
Pilot Number:042
Company ICAO:CAT
Aircraft Type:F70/A
PAX:3
Aircraft Registration:PFJ
Departing Airport: LEIB
Destination Airport: LEGE
Alternate Airport:LEBL
Online: VATSIM
Route:GATOS A293 EBROX W111 VNV N861 LATRO H110 MAMUK
Flight Level:F240
No Slew and time accel
No pause
Crash detect
Detect pilot in Cockpit between each 30 and 45 minutes
09:08 Zero fuel Weight: 72666 Lbs, Fuel Weight: 19177 Lbs
09:08 VATSIM:LEIB 010900Z 17008KT 130V220 9999 FEW025 18/10 Q1017 NOSIG
09:08 VATSIM:LEGE 010830Z VRB02KT CAVOK 14/07 Q1016
09:08 VOICE CATALONIAN
09:11 Parking Brakes off
09:17 Take-off
09:17 Take off Weight: 91397 Lbs
09:17 Wind: 183º @ 008 Knots Heading: 240º
09:17 POS N38º 52´ 14´´ E001º 22´ 03´´
09:17 Gear Up: 156 Knots
09:17 Flaps:1 at 156 Knots
09:17 Flaps:0 at 163 Knots
09:32 Wind:193º@021 Knots Heading: 353º Ground Speed: 420 Knots Altitude 22352 ft
09:33 TOC
09:33 Fuel Weight: 16710 Lb
09:47 Wind:153º@005 Knots Heading: 353º Ground Speed: 445 Knots Altitude 24107 ft
09:48 TOD
09:48 Fuel Weight: 15242 Lb
10:02 Wind:156º@004 Knots Heading: 134º Ground Speed: 210 Knots Altitude 3992 ft
10:04 Flaps:1 at 192 Knots
10:05 Flaps:2 at 174 Knots
10:05 Gear Down: 159 Knots
10:05 Flaps:3 at 159 Knots
10:05 Flaps:4 at 157 Knots
10:05 Flaps:3 at 153 Knots
10:08 TouchDown:Rate -228 ft/min Speed: 115 Knots
10:09 VATSIM:LEGE 011000Z 19004KT 130V240 9999 FEW045 17/08 Q1016
10:09 Land
10:09 Wind:177º@003 Knots
10:09 Heading: 194º
10:09 Flight Duration: 00:52
10:09 Landing Weight: 86954 Lbs
10:09 POS N41º 54´ 03´´ E002º 45´ 38´´
10:12 Parking brakes on
10:12 Block to Block Duration: 01:01
10:12 Final Fuel: 14144 Lbls
10:12 Spent Fuel: 5033 Lbls
10:12 Flight Length: 295 NM
10:12TOD Land Length: 93 NM

Exportar CSV

Powered by Drupal - Modified by Danger4k